Ardmore, North Carolina
Current Conditions -  °F | °C
As of 2:54 AM on Thursday 18 Dec 2014 (Local Time) from KINT Reporting Station
Clear Clear  
Wind Chill:   Ceiling: Unl
Heat Index:   Visibility: 10mi
Dew Point: -4°   Wind: 7mph
Humidity: 53%   Direction: 340°NNW
Pressure: 30.12"   Gusts: NA
Location:  36.0595°N, 80.3192°W
Report Text: KINT 180754Z AUTO 34006KT 10SM CLR 04/M04 A3012 RMK AO2 SLP197 T00441044
Loading
Personal Weather Stations






























Interactive Weather Map New forecast layout! Learn more

10-Day Weather Forecast

Advertisements
Track Severe Weather on mobile